Time;durP1;ratioP1;P1;durP2;ratioP2;P2;SDS_P1;SDS_P2;PMS_P1;PMS_P2;Temp;Humidity;BMP_temperature;BMP_pressure;BME280_temperature;BME280_humidity;BME280_pressure;Samples;Min_cycle;Max_cycle;Signal;HPM_P1;HPM_P2
2022/02/23 00:01:38;;;;;;;7.27;2.00;;;;;;;4.64;100.00;96598.69;5074599;28;20477;-77
2022/02/23 00:04:04;;;;;;;5.13;1.53;;;;;;;4.64;100.00;96582.22;5021611;28;20538;-77
2022/02/23 00:06:29;;;;;;;6.07;1.70;;;;;;;4.61;100.00;96595.47;5031339;28;20029;-76
2022/02/23 00:08:55;;;;;;;6.00;1.40;;;;;;;4.61;100.00;96598.09;5016464;28;20169;-75
2022/02/23 00:11:21;;;;;;;15.57;3.03;;;;;;;4.60;100.00;96586.00;5024162;28;20029;-76
2022/02/23 00:13:46;;;;;;;10.03;1.70;;;;;;;4.59;100.00;96586.94;5031180;28;20032;-76
2022/02/23 00:16:12;;;;;;;12.53;1.87;;;;;;;4.57;100.00;96574.03;5040889;28;20120;-76
2022/02/23 00:18:38;;;;;;;6.57;1.33;;;;;;;4.61;100.00;96572.88;5016378;28;20042;-76
2022/02/23 00:21:05;;;;;;;8.50;1.40;;;;;;;4.56;100.00;96566.31;5042716;28;20057;-76
2022/02/23 00:23:31;;;;;;;6.87;1.60;;;;;;;4.54;100.00;96581.25;5034096;28;20040;-77
2022/02/23 00:25:56;;;;;;;6.00;1.53;;;;;;;4.52;100.00;96583.94;5035390;28;20038;-76
2022/02/23 00:28:22;;;;;;;6.93;2.40;;;;;;;4.53;100.00;96585.63;5011207;28;20026;-76
2022/02/23 00:30:48;;;;;;;6.93;1.77;;;;;;;4.53;100.00;96587.38;5040389;28;20059;-77
2022/02/23 00:33:13;;;;;;;5.60;1.67;;;;;;;4.51;100.00;96584.09;5023433;28;20103;-76
2022/02/23 00:35:39;;;;;;;6.43;1.50;;;;;;;4.51;100.00;96584.09;5025020;28;20040;-76
2022/02/23 00:38:05;;;;;;;5.83;1.40;;;;;;;4.51;100.00;96584.91;5038889;28;20380;-76
2022/02/23 00:40:31;;;;;;;7.73;1.47;;;;;;;4.54;100.00;96583.84;5065579;28;20041;-76
2022/02/23 00:42:57;;;;;;;7.60;1.57;;;;;;;4.50;100.00;96575.44;5034878;28;20048;-76
2022/02/23 00:45:23;;;;;;;8.57;1.80;;;;;;;4.47;100.00;96576.50;5035209;28;20034;-76
2022/02/23 00:47:49;;;;;;;5.90;1.13;;;;;;;4.55;100.00;96588.13;5035846;28;20028;-76
2022/02/23 00:50:15;;;;;;;8.50;1.57;;;;;;;4.57;100.00;96573.22;5014961;28;20033;-76
2022/02/23 00:52:40;;;;;;;5.23;1.23;;;;;;;4.60;100.00;96575.59;5025673;28;20466;-75
2022/02/23 00:55:06;;;;;;;6.27;1.47;;;;;;;4.61;100.00;96579.84;5036684;28;20043;-76
2022/02/23 00:57:32;;;;;;;7.83;1.83;;;;;;;4.58;100.00;96585.28;5041230;28;20033;-76
2022/02/23 00:59:58;;;;;;;5.77;1.27;;;;;;;4.61;100.00;96585.06;5021759;28;20029;-76
2022/02/23 01:02:24;;;;;;;5.37;1.10;;;;;;;4.63;100.00;96578.81;5014558;28;20044;-76
2022/02/23 01:04:50;;;;;;;7.20;1.60;;;;;;;4.64;100.00;96585.66;5029753;28;20036;-77
2022/02/23 01:07:16;;;;;;;6.30;1.20;;;;;;;4.60;100.00;96593.81;5043854;28;20495;-76
2022/02/23 01:09:42;;;;;;;4.93;1.13;;;;;;;4.64;100.00;96583.06;5036077;28;20034;-77
2022/02/23 01:12:09;;;;;;;6.63;1.10;;;;;;;4.65;100.00;96579.50;5038167;28;20031;-76
2022/02/23 01:14:36;;;;;;;5.80;1.00;;;;;;;4.68;100.00;96587.09;5042051;28;20056;-76
2022/02/23 01:17:03;;;;;;;4.57;1.23;;;;;;;4.70;100.00;96593.03;5043945;28;20041;-76
2022/02/23 01:19:29;;;;;;;4.10;1.40;;;;;;;4.78;100.00;96595.06;5031390;28;20025;-76
2022/02/23 01:21:55;;;;;;;6.57;1.20;;;;;;;4.78;100.00;96591.63;5052236;28;20082;-76
2022/02/23 01:24:20;;;;;;;3.93;0.73;;;;;;;4.77;100.00;96588.19;5042410;28;20040;-75
2022/02/23 01:26:46;;;;;;;5.97;1.63;;;;;;;4.79;100.00;96594.09;5035562;28;20025;-76
2022/02/23 01:29:11;;;;;;;2.93;0.90;;;;;;;4.83;100.00;96595.56;5052302;28;20390;-76
2022/02/23 01:31:37;;;;;;;5.53;1.20;;;;;;;4.90;100.00;96591.53;5034105;28;20063;-75
2022/02/23 01:34:03;;;;;;;4.43;0.90;;;;;;;4.92;100.00;96600.06;5051694;28;20398;-76
2022/02/23 01:36:29;;;;;;;3.77;0.80;;;;;;;4.90;100.00;96594.13;5022621;28;20033;-76
2022/02/23 01:38:55;;;;;;;6.23;1.13;;;;;;;4.95;100.00;96594.59;5021422;28;20045;-76
2022/02/23 01:41:21;;;;;;;2.77;0.90;;;;;;;4.97;100.00;96633.59;5030425;28;20463;-76
2022/02/23 01:43:47;;;;;;;5.20;1.23;;;;;;;4.90;100.00;96721.84;5028488;28;20395;-77
2022/02/23 01:46:14;;;;;;;4.53;0.77;;;;;;;3.95;100.00;96731.19;5021927;28;20049;-76
2022/02/23 01:48:40;;;;;;;2.53;0.50;;;;;;;2.91;100.00;96750.34;5030191;28;20026;-76
2022/02/23 01:51:06;;;;;;;4.67;0.80;;;;;;;2.29;100.00;96769.00;5037148;28;20028;-75
2022/02/23 01:53:32;;;;;;;4.17;0.97;;;;;;;2.05;100.00;96766.16;5064665;28;20024;-75
2022/02/23 01:55:58;;;;;;;6.93;1.37;;;;;;;1.95;100.00;96768.47;5046440;28;20033;-75
2022/02/23 01:58:24;;;;;;;1.73;0.30;;;;;;;1.83;100.00;96777.81;5028812;28;20108;-75
2022/02/23 02:00:49;;;;;;;3.70;0.97;;;;;;;1.88;100.00;96785.31;5011210;28;20041;-75
2022/02/23 02:03:15;;;;;;;4.07;0.90;;;;;;;1.94;100.00;96784.94;5027856;28;20091;-76
2022/02/23 02:05:41;;;;;;;2.47;0.53;;;;;;;1.96;100.00;96779.66;5014015;28;20038;-75
2022/02/23 02:08:06;;;;;;;3.13;0.50;;;;;;;1.98;100.00;96770.88;5048953;28;20398;-76
2022/02/23 02:10:32;;;;;;;5.30;0.80;;;;;;;2.08;100.00;96774.56;5038621;28;20814;-75
2022/02/23 02:12:58;;;;;;;2.20;0.57;;;;;;;2.16;100.00;96778.47;5011073;28;20040;-76
2022/02/23 02:15:24;;;;;;;3.10;0.60;;;;;;;2.22;100.00;96791.06;5020929;28;20029;-76
2022/02/23 02:17:49;;;;;;;5.27;0.80;;;;;;;2.30;100.00;96792.25;5032824;28;20371;-76
2022/02/23 02:20:15;;;;;;;1.57;0.40;;;;;;;2.36;100.00;96775.47;5043624;28;20041;-76
2022/02/23 02:22:41;;;;;;;2.37;0.63;;;;;;;2.36;100.00;96791.03;5038455;28;20044;-76
2022/02/23 02:25:07;;;;;;;6.13;1.03;;;;;;;2.44;100.00;96798.34;5029000;28;20040;-75
2022/02/23 02:27:32;;;;;;;4.40;0.73;;;;;;;2.62;100.00;96793.78;5040094;28;20028;-76
2022/02/23 02:29:59;;;;;;;3.60;0.70;;;;;;;2.59;100.00;96802.59;5024268;28;20029;-76
2022/02/23 02:32:25;;;;;;;4.83;1.00;;;;;;;2.62;100.00;96807.59;5042210;28;20616;-76
2022/02/23 02:34:50;;;;;;;2.00;0.50;;;;;;;2.67;100.00;96810.72;5019097;28;20029;-76
2022/02/23 02:37:16;;;;;;;3.63;0.53;;;;;;;2.57;100.00;96815.66;5049943;28;20591;-76
2022/02/23 02:39:42;;;;;;;6.20;1.57;;;;;;;2.56;100.00;96821.78;5029843;28;20460;-76
2022/02/23 02:42:09;;;;;;;1.83;0.43;;;;;;;2.63;100.00;96824.00;5042052;28;20021;-76
2022/02/23 02:44:36;;;;;;;6.37;0.97;;;;;;;2.59;100.00;96826.78;5039060;28;20068;-76
2022/02/23 02:47:03;;;;;;;5.77;0.80;;;;;;;2.63;100.00;96834.38;5034840;28;20780;-76
2022/02/23 02:49:28;;;;;;;5.53;0.67;;;;;;;2.66;100.00;96834.19;5038027;28;20078;-76
2022/02/23 02:51:54;;;;;;;4.10;1.00;;;;;;;2.64;100.00;96843.84;5037027;28;20025;-76
2022/02/23 02:54:20;;;;;;;3.87;0.60;;;;;;;2.71;100.00;96848.53;5036699;28;20037;-76
2022/02/23 02:56:46;;;;;;;4.13;0.70;;;;;;;2.72;100.00;96857.19;5028776;28;20069;-76
2022/02/23 02:59:12;;;;;;;3.03;0.60;;;;;;;2.73;100.00;96862.28;5008955;28;20428;-76
2022/02/23 03:01:38;;;;;;;7.83;0.80;;;;;;;2.76;100.00;96872.47;5024894;28;20039;-77
2022/02/23 03:04:06;;;;;;;2.33;0.60;;;;;;;2.75;100.00;96875.16;5034928;28;20043;-76
2022/02/23 03:06:33;;;;;;;3.90;0.80;;;;;;;2.77;100.00;96883.69;5028672;28;20033;-76
2022/02/23 03:08:59;;;;;;;3.07;0.63;;;;;;;2.77;100.00;96873.31;5035769;28;20552;-76
2022/02/23 03:11:25;;;;;;;4.90;0.60;;;;;;;2.80;100.00;96884.34;5033340;28;20037;-76
2022/02/23 03:13:51;;;;;;;4.47;0.80;;;;;;;2.81;100.00;96883.41;5011473;28;20029;-76
2022/02/23 03:16:18;;;;;;;5.70;0.70;;;;;;;2.80;100.00;96892.13;5029338;28;20044;-77
2022/02/23 03:18:44;;;;;;;7.30;1.37;;;;;;;2.85;100.00;96899.66;5020002;28;20053;-76
2022/02/23 03:21:10;;;;;;;4.93;0.70;;;;;;;2.83;100.00;96897.13;5024511;28;20398;-76
2022/02/23 03:23:37;;;;;;;4.73;1.27;;;;;;;2.80;100.00;96905.13;5013456;28;20030;-78
2022/02/23 03:26:03;;;;;;;3.30;0.43;;;;;;;2.83;100.00;96902.34;5026551;28;20665;-76
2022/02/23 03:28:29;;;;;;;4.53;1.10;;;;;;;2.80;100.00;96910.31;5058117;28;20025;-76
2022/02/23 03:30:55;;;;;;;3.03;0.87;;;;;;;2.83;100.00;96914.50;5036355;28;20431;-76
2022/02/23 03:33:20;;;;;;;2.87;0.60;;;;;;;2.82;100.00;96920.63;5024355;28;20135;-76
2022/02/23 03:35:47;;;;;;;6.53;1.20;;;;;;;2.82;100.00;96913.66;5043538;28;20133;-76
2022/02/23 03:38:13;;;;;;;6.80;1.07;;;;;;;2.84;100.00;96922.16;5027765;28;20056;-76
2022/02/23 03:40:40;;;;;;;5.57;0.97;;;;;;;2.81;100.00;96931.91;5031199;28;20036;-76
2022/02/23 03:43:07;;;;;;;4.70;0.80;;;;;;;2.82;100.00;96933.63;5014565;28;20638;-75
2022/02/23 03:45:33;;;;;;;6.53;0.70;;;;;;;2.85;100.00;96938.63;5016385;28;20399;-76
2022/02/23 03:48:00;;;;;;;7.57;1.27;;;;;;;2.79;100.00;96939.81;5035700;28;20041;-76
2022/02/23 03:50:26;;;;;;;4.13;0.83;;;;;;;2.80;100.00;96938.06;5044393;28;20076;-76
2022/02/23 03:52:51;;;;;;;4.33;0.60;;;;;;;2.78;100.00;96942.50;5039456;28;20032;-76
2022/02/23 03:55:19;;;;;;;3.90;0.73;;;;;;;2.74;100.00;96954.84;5035449;28;20103;-76
2022/02/23 03:57:44;;;;;;;6.57;2.03;;;;;;;2.75;100.00;96943.53;5042365;28;20056;-76
2022/02/23 04:00:13;;;;;;;5.53;0.77;;;;;;;2.75;100.00;96958.25;5022950;28;20483;-76
2022/02/23 04:02:40;;;;;;;7.13;1.03;;;;;;;2.78;100.00;96958.94;5042801;28;20057;-76
2022/02/23 04:05:06;;;;;;;7.13;0.80;;;;;;;2.78;100.00;96963.28;5031063;28;20041;-76
2022/02/23 04:07:33;;;;;;;3.13;0.60;;;;;;;2.76;100.00;96963.38;5032028;28;20056;-76
2022/02/23 04:09:59;;;;;;;7.73;1.20;;;;;;;2.79;100.00;96970.16;5009658;28;20105;-76
2022/02/23 04:12:25;;;;;;;4.93;1.30;;;;;;;2.77;100.00;96980.63;5021215;28;20069;-76
2022/02/23 04:14:51;;;;;;;5.90;1.07;;;;;;;2.78;100.00;96979.72;5020038;28;20044;-76
2022/02/23 04:17:17;;;;;;;8.83;0.97;;;;;;;2.73;100.00;96983.50;5023111;28;20033;-76
2022/02/23 04:19:43;;;;;;;4.87;1.10;;;;;;;2.62;100.00;96994.56;5031895;28;20466;-76
2022/02/23 04:22:09;;;;;;;3.33;0.77;;;;;;;2.53;100.00;96985.53;5034198;28;20029;-76
2022/02/23 04:24:35;;;;;;;4.67;1.10;;;;;;;2.46;100.00;96993.78;5018663;28;20143;-76
2022/02/23 04:27:02;;;;;;;4.57;0.90;;;;;;;2.39;100.00;96995.06;5024761;28;20044;-76
2022/02/23 04:29:28;;;;;;;5.10;1.07;;;;;;;2.30;100.00;97005.06;5040104;28;20021;-76
2022/02/23 04:31:54;;;;;;;5.43;0.97;;;;;;;2.34;100.00;97013.50;5033190;28;20029;-77
2022/02/23 04:34:20;;;;;;;5.63;0.73;;;;;;;2.29;100.00;97007.75;5029948;28;20053;-77
2022/02/23 04:36:46;;;;;;;7.60;1.00;;;;;;;2.27;100.00;97019.97;5050023;28;20427;-76
2022/02/23 04:39:12;;;;;;;5.63;0.87;;;;;;;2.28;100.00;97012.13;5015953;28;20021;-76
2022/02/23 04:41:38;;;;;;;5.67;1.00;;;;;;;2.21;100.00;97020.31;5019551;28;20679;-76
2022/02/23 04:44:05;;;;;;;6.00;1.10;;;;;;;2.20;100.00;97019.50;5037867;28;20066;-76
2022/02/23 04:46:31;;;;;;;6.13;1.10;;;;;;;2.22;100.00;97016.81;5045981;28;20076;-76
2022/02/23 04:48:57;;;;;;;10.30;1.20;;;;;;;2.19;100.00;97028.22;5041873;28;20045;-76
2022/02/23 04:51:28;;;;;;;7.90;1.53;;;;;;;2.16;100.00;97024.97;5045637;28;20155;-76
2022/02/23 04:54:00;;;;;;;3.57;0.80;;;;;;;2.12;100.00;97032.91;5021862;28;20675;-76
2022/02/23 04:56:26;;;;;;;7.67;1.10;;;;;;;2.05;100.00;97028.16;4999702;28;20037;-76
2022/02/23 04:58:52;;;;;;;8.10;1.77;;;;;;;2.05;100.00;97031.59;5061773;28;20025;-76
2022/02/23 05:01:17;;;;;;;9.03;1.60;;;;;;;2.01;100.00;97034.44;5031477;28;20033;-76
2022/02/23 05:03:44;;;;;;;7.77;1.47;;;;;;;1.98;100.00;97029.41;5049881;28;20067;-77
2022/02/23 05:06:10;;;;;;;7.80;2.57;;;;;;;1.93;100.00;97031.44;5016514;28;20036;-76
2022/02/23 05:08:35;;;;;;;9.63;2.77;;;;;;;1.88;100.00;97045.50;5036252;28;20025;-76
2022/02/23 05:11:01;;;;;;;7.57;2.80;;;;;;;1.86;100.00;97057.72;5027519;28;20033;-76
2022/02/23 05:13:29;;;;;;;11.23;3.23;;;;;;;1.81;100.00;97058.88;5029311;28;20040;-76
2022/02/23 05:15:56;;;;;;;13.30;2.87;;;;;;;1.83;100.00;97062.25;5038639;28;20035;-76
2022/02/23 05:18:29;;;;;;;8.43;2.37;;;;;;;1.83;100.00;97070.84;5042446;28;20063;-76
2022/02/23 05:20:59;;;;;;;7.60;2.47;;;;;;;1.76;100.00;97066.09;5030697;28;20494;-77
2022/02/23 05:23:26;;;;;;;7.03;2.20;;;;;;;1.76;100.00;97068.69;5025438;28;20124;-76
2022/02/23 05:25:52;;;;;;;8.97;3.43;;;;;;;1.67;100.00;97082.16;5036394;28;20398;-76
2022/02/23 05:28:20;;;;;;;9.97;2.27;;;;;;;1.61;100.00;97079.00;5057502;28;20029;-76
2022/02/23 05:30:46;;;;;;;5.27;2.07;;;;;;;1.68;100.00;97081.22;5022441;28;20053;-76
2022/02/23 05:33:12;;;;;;;7.43;2.50;;;;;;;1.69;100.00;97080.31;5036838;28;20032;-76
2022/02/23 05:35:39;;;;;;;11.10;3.17;;;;;;;1.64;100.00;97089.19;5031341;28;20040;-76
2022/02/23 05:38:06;;;;;;;7.47;2.70;;;;;;;1.64;100.00;97085.75;5021903;28;20510;-76
2022/02/23 05:40:33;;;;;;;8.10;3.67;;;;;;;1.60;100.00;97095.44;5040738;28;20026;-76
2022/02/23 05:42:58;;;;;;;10.27;4.67;;;;;;;1.54;100.00;97097.53;5042185;28;20032;-76
2022/02/23 05:45:25;;;;;;;12.13;4.20;;;;;;;1.50;100.00;97096.84;5017490;28;20406;-76
2022/02/23 05:47:50;;;;;;;6.67;2.30;;;;;;;1.52;100.00;97101.97;5027273;28;20022;-76
2022/02/23 05:50:16;;;;;;;8.17;2.20;;;;;;;1.47;100.00;97107.38;5018196;28;20047;-75
2022/02/23 05:52:44;;;;;;;6.97;2.00;;;;;;;1.47;100.00;97112.56;5031773;28;20041;-76
2022/02/23 05:55:10;;;;;;;11.07;4.33;;;;;;;1.50;100.00;97119.34;5048230;28;20086;-76
2022/02/23 05:57:35;;;;;;;7.73;3.10;;;;;;;1.38;100.00;97129.47;5037325;28;20017;-76
2022/02/23 06:00:04;;;;;;;9.47;4.00;;;;;;;1.43;100.00;97139.59;5024490;28;20045;-76
2022/02/23 06:02:37;;;;;;;10.67;2.30;;;;;;;1.35;100.00;97140.00;5028124;28;20068;-76
2022/02/23 06:05:03;;;;;;;5.63;2.00;;;;;;;1.31;100.00;97141.06;5031574;28;20499;-77
2022/02/23 06:07:29;;;;;;;8.13;1.60;;;;;;;1.37;100.00;97139.91;5040653;28;20041;-76
2022/02/23 06:09:55;;;;;;;13.33;3.30;;;;;;;1.36;100.00;97141.66;5041119;28;20056;-76
2022/02/23 06:12:20;;;;;;;13.63;2.50;;;;;;;1.39;100.00;97158.81;5029111;28;20033;-75
2022/02/23 06:14:46;;;;;;;9.40;2.30;;;;;;;1.38;100.00;97159.72;5011542;28;20706;-75
2022/02/23 06:17:12;;;;;;;9.90;2.30;;;;;;;1.41;100.00;97165.59;5028120;28;20033;-77
2022/02/23 06:19:37;;;;;;;10.07;3.10;;;;;;;1.48;100.00;97166.13;5029519;28;20116;-76
2022/02/23 06:22:04;;;;;;;10.87;3.03;;;;;;;1.51;100.00;97171.13;5038790;28;20479;-76
2022/02/23 06:24:30;;;;;;;7.10;2.40;;;;;;;1.50;100.00;97178.97;5032062;28;20489;-76
2022/02/23 06:26:57;;;;;;;8.47;2.40;;;;;;;1.46;100.00;97183.47;5023212;28;20120;-76
2022/02/23 06:29:23;;;;;;;9.87;2.77;;;;;;;1.50;100.00;97190.19;5045043;28;20166;-77
2022/02/23 06:32:03;;;;;;;8.17;3.23;;;;;;;1.46;100.00;97204.22;5033020;28;20025;-76
2022/02/23 06:34:29;;;;;;;7.57;2.10;;;;;;;1.44;100.00;97198.28;5040316;28;20038;-77
2022/02/23 06:36:54;;;;;;;9.90;3.23;;;;;;;1.43;100.00;97204.38;5034711;28;20056;-75
2022/02/23 06:39:21;;;;;;;12.17;2.07;;;;;;;1.48;100.00;97207.59;5035947;28;20498;-76
2022/02/23 06:41:48;;;;;;;11.10;2.07;;;;;;;1.57;100.00;97208.84;5034214;28;20120;-77
2022/02/23 06:44:18;;;;;;;12.90;3.83;;;;;;;1.66;100.00;97216.16;5025638;28;20032;-76
2022/02/23 06:46:44;;;;;;;13.60;3.87;;;;;;;1.74;100.00;97224.34;5022924;28;20502;-76
2022/02/23 06:49:10;;;;;;;12.70;4.13;;;;;;;1.81;100.00;97227.47;5039742;28;20116;-76
2022/02/23 06:51:36;;;;;;;11.73;2.43;;;;;;;1.88;100.00;97221.06;5046630;28;20562;-75
2022/02/23 06:54:02;;;;;;;7.83;2.30;;;;;;;1.92;100.00;97214.78;5019061;28;20025;-76
2022/02/23 06:56:28;;;;;;;9.87;2.50;;;;;;;1.99;100.00;97215.28;5026886;28;20483;-76
2022/02/23 06:58:53;;;;;;;9.83;2.50;;;;;;;2.10;100.00;97220.72;5041286;28;20063;-76
2022/02/23 07:01:20;;;;;;;9.43;2.17;;;;;;;2.14;100.00;97211.84;5043028;28;20487;-77
2022/02/23 07:03:48;;;;;;;9.93;2.17;;;;;;;2.16;100.00;97225.59;5032952;28;20068;-76
2022/02/23 07:06:14;;;;;;;9.90;2.10;;;;;;;2.13;100.00;97228.34;5034323;28;20702;-76
2022/02/23 07:08:48;;;;;;;9.60;2.33;;;;;;;2.17;100.00;97236.81;5016174;28;20029;-76
2022/02/23 07:11:14;;;;;;;7.17;1.93;;;;;;;2.21;100.00;97230.53;5044201;28;20029;-76
2022/02/23 07:13:41;;;;;;;9.37;2.20;;;;;;;2.23;100.00;97231.28;5037709;28;20032;-76
2022/02/23 07:16:06;;;;;;;8.00;1.97;;;;;;;2.24;100.00;97230.34;5034317;28;20018;-78
2022/02/23 07:18:32;;;;;;;9.57;2.00;;;;;;;2.25;100.00;97235.47;5033010;28;20510;-76
2022/02/23 07:20:59;;;;;;;12.03;2.37;;;;;;;2.25;100.00;97240.66;5013987;28;20053;-75
2022/02/23 07:23:26;;;;;;;18.00;6.30;;;;;;;2.83;100.00;97244.38;5010998;28;20479;-76
2022/02/23 07:25:53;;;;;;;9.17;2.47;;;;;;;3.47;100.00;97232.88;5010730;28;20037;-77
2022/02/23 07:28:19;;;;;;;9.50;1.97;;;;;;;3.70;100.00;97236.69;5028662;28;20079;-76
2022/02/23 07:30:46;;;;;;;14.93;2.60;;;;;;;4.26;100.00;97226.34;5030833;28;20029;-76
2022/02/23 07:33:13;;;;;;;11.07;1.93;;;;;;;4.74;100.00;97231.97;5030100;28;20513;-76
2022/02/23 07:35:39;;;;;;;10.73;2.80;;;;;;;4.77;100.00;97244.81;5035015;28;20100;-76
2022/02/23 07:38:08;;;;;;;8.27;1.97;;;;;;;5.26;100.00;97239.00;5041046;28;20515;-76
2022/02/23 07:40:34;;;;;;;8.07;2.20;;;;;;;5.61;100.00;97244.47;5022103;28;20608;-76
2022/02/23 07:43:00;;;;;;;9.40;1.70;;;;;;;5.89;100.00;97251.25;5031198;28;20490;-76
2022/02/23 07:45:29;;;;;;;6.90;1.60;;;;;;;6.74;100.00;97247.97;5022994;28;20039;-77
2022/02/23 07:47:54;;;;;;;9.00;1.73;;;;;;;6.80;100.00;97244.91;5034514;28;20029;-77
2022/02/23 07:50:20;;;;;;;10.83;1.90;;;;;;;7.05;100.00;97247.41;5033971;28;20069;-76
2022/02/23 07:52:50;;;;;;;6.23;1.60;;;;;;;6.68;100.00;97248.44;5039841;28;20037;-77
2022/02/23 07:55:21;;;;;;;7.47;3.00;;;;;;;6.75;100.00;97253.09;5023540;28;20029;-76
2022/02/23 07:57:46;;;;;;;10.67;2.93;;;;;;;6.90;100.00;97258.97;5023331;28;20044;-76
2022/02/23 08:00:12;;;;;;;4.40;1.43;;;;;;;7.10;100.00;97257.53;5032610;28;20017;-77
2022/02/23 08:02:39;;;;;;;6.53;1.67;;;;;;;7.52;100.00;97257.94;5046956;28;20044;-76
2022/02/23 08:05:06;;;;;;;11.47;1.70;;;;;;;7.54;100.00;97256.00;5028573;28;20029;-76
2022/02/23 08:07:31;;;;;;;10.80;1.57;;;;;;;7.71;100.00;97260.84;5038910;28;20037;-77
2022/02/23 08:09:57;;;;;;;9.07;1.93;;;;;;;7.80;100.00;97262.72;5018183;28;20022;-77
2022/02/23 08:12:31;;;;;;;9.83;2.37;;;;;;;7.74;100.00;97268.44;5063447;28;20026;-76
2022/02/23 08:19:30;;;;;;;10.30;2.40;;;;;;;8.46;99.67;97276.03;5030087;28;20044;-76
2022/02/23 08:20:27;;;;;;;7.10;1.47;;;;;;;8.90;95.58;97269.03;5031662;28;20072;-76
2022/02/23 08:22:54;;;;;;;7.50;1.70;;;;;;;8.79;94.64;97270.88;5032675;28;20486;-76
2022/02/23 08:25:20;;;;;;;7.30;1.90;;;;;;;9.10;96.68;97270.03;5040866;28;20056;-77
2022/02/23 08:27:46;;;;;;;8.50;2.10;;;;;;;8.98;95.54;97271.84;5044720;28;20061;-76
2022/02/23 08:30:12;;;;;;;9.83;1.77;;;;;;;9.54;95.26;97267.34;5064636;28;20103;-77
2022/02/23 08:32:37;;;;;;;8.00;1.67;;;;;;;10.20;86.33;97275.78;5044823;28;20036;-77
2022/02/23 08:35:04;;;;;;;6.53;1.97;;;;;;;10.58;83.89;97264.59;5030918;28;20028;-77
2022/02/23 08:37:29;;;;;;;9.20;2.20;;;;;;;10.49;81.85;97265.38;5028990;28;20033;-77
2022/02/23 08:39:55;;;;;;;7.03;1.93;;;;;;;10.93;77.12;97268.56;5031032;28;20517;-77
2022/02/23 08:42:20;;;;;;;10.83;2.87;;;;;;;10.98;80.58;97261.09;5012106;28;20077;-77
2022/02/23 08:44:46;;;;;;;8.50;2.03;;;;;;;11.04;80.21;97255.28;5027474;28;20051;-76
2022/02/23 08:47:15;;;;;;;8.73;2.20;;;;;;;10.95;80.33;97255.25;5038378;28;20041;-76
2022/02/23 08:49:41;;;;;;;9.33;2.30;;;;;;;10.92;81.86;97261.63;5044419;28;20033;-78
2022/02/23 08:52:08;;;;;;;11.00;2.17;;;;;;;10.91;80.83;97265.22;5039119;28;20544;-77
2022/02/23 08:54:34;;;;;;;8.97;2.67;;;;;;;10.34;78.64;97258.84;5014405;28;20072;-78
2022/02/23 08:56:59;;;;;;;6.80;2.10;;;;;;;11.44;77.80;97258.75;5033215;28;20068;-77
2022/02/23 08:59:25;;;;;;;6.73;2.37;;;;;;;12.00;76.53;97261.47;5031283;28;20667;-77
2022/02/23 09:01:51;;;;;;;7.97;2.37;;;;;;;11.55;75.61;97264.69;5067967;28;20490;-77
2022/02/23 09:04:16;;;;;;;11.33;3.27;;;;;;;11.29;77.46;97263.59;5041965;28;20628;-77
2022/02/23 09:06:42;;;;;;;7.37;1.77;;;;;;;10.39;77.00;97275.03;5016537;28;20442;-77
2022/02/23 09:09:13;;;;;;;10.83;2.57;;;;;;;11.01;77.08;97265.25;5036785;28;20017;-77
2022/02/23 09:11:40;;;;;;;7.37;2.23;;;;;;;11.40;74.26;97275.78;5033582;28;20041;-77
2022/02/23 09:14:06;;;;;;;9.63;1.97;;;;;;;10.43;76.14;97276.47;5027307;28;20077;-77
2022/02/23 09:16:32;;;;;;;9.70;2.17;;;;;;;11.53;69.81;97266.63;5023483;28;20025;-77
2022/02/23 09:18:59;;;;;;;7.10;2.03;;;;;;;11.08;72.57;97267.19;5023811;28;20080;-78
2022/02/23 09:21:26;;;;;;;9.37;1.80;;;;;;;12.14;68.61;97264.59;5003609;28;20021;-76
2022/02/23 09:23:52;;;;;;;6.50;2.07;;;;;;;11.93;70.05;97268.28;5034377;28;20044;-77
2022/02/23 09:26:19;;;;;;;9.90;3.00;;;;;;;11.85;67.86;97262.06;5038588;28;20037;-78
2022/02/23 09:28:46;;;;;;;8.93;2.17;;;;;;;11.83;68.73;97269.25;5045646;28;20033;-77
2022/02/23 09:31:13;;;;;;;7.97;2.00;;;;;;;13.25;64.35;97253.09;5039273;28;20029;-76
2022/02/23 09:33:40;;;;;;;7.63;2.00;;;;;;;12.39;64.20;97257.88;5023730;28;20053;-76
2022/02/23 09:36:07;;;;;;;9.00;2.67;;;;;;;13.36;61.52;97260.78;5035533;28;20036;-76
2022/02/23 09:38:34;;;;;;;7.40;2.00;;;;;;;13.40;60.28;97266.59;5034932;28;20522;-77
2022/02/23 09:41:04;;;;;;;12.57;2.63;;;;;;;12.22;58.54;97276.13;5039282;28;20036;-77
2022/02/23 09:43:31;;;;;;;12.47;2.60;;;;;;;12.69;60.41;97280.50;5038108;28;20065;-77
2022/02/23 09:45:57;;;;;;;14.33;2.43;;;;;;;12.41;60.53;97269.13;5009836;28;20191;-77
2022/02/23 09:48:31;;;;;;;6.60;1.63;;;;;;;12.66;59.05;97275.53;5026672;28;20045;-77
2022/02/23 09:50:58;;;;;;;;;;;;;;;13.91;54.69;97267.66;5027370;28;20029;-78
2022/02/23 09:53:24;;;;;;;8.90;2.23;;;;;;;14.47;56.37;97262.84;5027708;28;19983;-79
2022/02/23 09:55:59;;;;;;;8.77;2.03;;;;;;;11.84;56.55;97286.72;5021469;28;20030;-78
2022/02/23 09:58:25;;;;;;;6.43;1.57;;;;;;;13.08;56.32;97269.72;5058958;28;20060;-77
2022/02/23 10:00:54;;;;;;;7.20;1.53;;;;;;;14.22;51.98;97265.38;5026300;28;20029;-77
2022/02/23 10:03:24;;;;;;;11.10;2.60;;;;;;;12.32;56.45;97277.91;5030081;28;20041;-77
2022/02/23 10:05:50;;;;;;;6.10;1.60;;;;;;;11.46;58.03;97277.88;5049868;28;20458;-77
2022/02/23 10:08:16;;;;;;;10.93;2.20;;;;;;;11.74;57.48;97281.47;5042063;28;20028;-78
2022/02/23 10:10:45;;;;;;;9.07;2.17;;;;;;;12.15;55.01;97282.13;5043716;28;20029;-78
2022/02/23 10:13:11;;;;;;;6.43;1.67;;;;;;;11.42;58.30;97285.22;5045353;28;20021;-77
2022/02/23 10:15:42;;;;;;;8.47;1.63;;;;;;;11.48;56.64;97273.31;5046178;28;20114;-77
2022/02/23 10:18:15;;;;;;;8.70;1.77;;;;;;;10.36;60.42;97285.81;5025211;28;20116;-77
2022/02/23 10:20:41;;;;;;;4.87;1.57;;;;;;;10.57;62.97;97288.41;5027264;28;20048;-78
2022/02/23 10:23:18;;;;;;;7.13;1.47;;;;;;;11.20;57.90;97282.84;5009285;28;20113;-77
2022/02/23 10:26:00;;;;;;;7.30;1.40;;;;;;;13.30;53.21;97264.03;5028144;28;20059;-78
2022/02/23 10:28:28;;;;;;;4.07;1.30;;;;;;;13.91;50.20;97265.84;5030675;28;20087;-78
2022/02/23 10:30:55;;;;;;;8.87;1.93;;;;;;;13.39;54.59;97272.88;5033436;28;20040;-77
2022/02/23 10:33:24;;;;;;;9.70;1.80;;;;;;;13.35;51.19;97274.97;5032566;28;20083;-77
2022/02/23 10:36:18;;;;;;;7.23;2.17;;;;;;;13.93;47.26;97276.28;5026146;28;20024;-78
2022/02/23 10:38:46;;;;;;;6.13;1.83;;;;;;;14.13;47.93;97277.72;5020686;28;20569;-78
2022/02/23 10:41:31;;;;;;;9.98;1.92;;;;;;;13.00;49.66;97272.28;5017997;28;20041;-77
2022/02/23 10:43:57;;;;;;;7.60;2.35;;;;;;;12.97;52.43;97276.03;5023728;28;20029;-78
2022/02/23 10:46:23;;;;;;;6.70;2.38;;;;;;;14.06;48.42;97263.47;5020976;28;21760;-79
2022/02/23 10:49:02;;;;;;;6.80;2.03;;;;;;;13.74;49.48;97272.00;5025770;28;20026;-78
2022/02/23 10:51:29;;;;;;;8.30;1.88;;;;;;;14.32;47.98;97271.41;5024900;28;20073;-78
2022/02/23 10:54:02;;;;;;;5.60;1.48;;;;;;;14.85;45.85;97261.53;5023406;28;20033;-79
2022/02/23 10:56:33;;;;;;;6.20;1.35;;;;;;;13.61;45.38;97255.69;5019032;28;20057;-78
2022/02/23 10:59:05;;;;;;;6.43;1.48;;;;;;;13.73;46.56;97264.22;5042252;28;20087;-77
2022/02/23 11:01:32;;;;;;;7.43;1.75;;;;;;;13.08;51.19;97260.00;5028274;28;20029;-79
2022/02/23 11:03:58;;;;;;;8.95;2.65;;;;;;;13.73;51.25;97254.47;5009313;28;20033;-77
2022/02/23 11:06:25;;;;;;;7.80;1.50;;;;;;;13.36;49.19;97244.09;5020659;28;20064;-78
2022/02/23 11:08:51;;;;;;;6.28;1.38;;;;;;;13.73;52.10;97259.75;5004732;28;20041;-77
2022/02/23 11:11:21;;;;;;;6.43;1.63;;;;;;;13.09;49.91;97252.91;5015934;28;20041;-77
2022/02/23 11:13:48;;;;;;;6.93;1.77;;;;;;;13.48;48.80;97244.69;5001230;28;20094;-77
2022/02/23 11:16:15;;;;;;;9.30;2.17;;;;;;;13.61;49.32;97245.13;5011939;28;20601;-78
2022/02/23 11:18:43;;;;;;;6.95;1.60;;;;;;;13.91;48.95;97243.84;5031058;28;20057;-78
2022/02/23 11:21:11;;;;;;;7.13;1.85;;;;;;;14.42;46.58;97243.97;5000350;28;20052;-77
2022/02/23 11:23:39;;;;;;;6.65;1.38;;;;;;;14.89;47.70;97231.13;5020629;28;20068;-78
2022/02/23 11:26:07;;;;;;;4.78;1.30;;;;;;;14.54;43.16;97230.31;5026635;28;20486;-78
2022/02/23 11:28:35;;;;;;;6.10;1.70;;;;;;;14.39;47.14;97230.09;5054750;28;20480;-78
2022/02/23 11:31:06;;;;;;;6.50;2.17;;;;;;;13.74;49.46;97232.34;5022604;28;20060;-78
2022/02/23 11:33:46;;;;;;;5.57;1.50;;;;;;;13.44;49.78;97223.03;5016650;28;20034;-79